createdAt,value
2019-04-07T15:24:35.285Z,10.80
2019-04-07T15:29:31.015Z,9.80
2019-04-07T15:34:24.152Z,9.90
2019-04-07T15:39:19.340Z,9.90
2019-04-07T15:44:16.473Z,10.10
2019-04-07T15:49:10.599Z,11.00
2019-04-07T15:54:03.601Z,12.50
2019-04-07T15:59:00.022Z,10.80
2019-04-07T16:03:54.823Z,9.40
2019-04-07T16:08:47.963Z,11.00
2019-04-07T16:13:42.254Z,10.60
2019-04-07T16:18:38.846Z,9.90
2019-04-07T16:23:36.370Z,10.20
2019-04-07T16:28:29.633Z,11.20
2019-04-07T16:33:23.352Z,11.40
2019-04-07T16:38:17.479Z,11.30
2019-04-07T16:43:15.361Z,12.20
2019-04-07T16:48:10.904Z,18.00
2019-04-07T16:53:06.476Z,11.20
2019-04-07T16:58:03.698Z,11.60
2019-04-07T17:02:56.848Z,12.40
2019-04-07T17:07:48.977Z,12.30
2019-04-07T17:12:42.849Z,10.80
2019-04-07T17:17:36.867Z,12.50
2019-04-07T17:22:30.493Z,11.30
2019-04-07T17:27:26.092Z,11.60
2019-04-07T17:32:34.698Z,11.10
2019-04-07T17:37:28.629Z,11.20
2019-04-07T17:42:25.706Z,10.80
2019-04-07T17:47:19.876Z,10.60
2019-04-07T17:52:12.767Z,12.70
2019-04-07T17:57:06.852Z,11.30
2019-04-07T18:02:00.372Z,10.30
2019-04-07T18:06:53.874Z,13.80
2019-04-07T18:11:53.452Z,11.80
2019-04-07T18:17:02.404Z,11.50
2019-04-07T18:21:55.025Z,11.10
2019-04-07T18:26:50.333Z,11.90
2019-04-07T18:31:44.496Z,10.50
2019-04-07T18:36:37.860Z,12.00
2019-04-07T18:41:33.821Z,13.60
2019-04-07T18:46:27.947Z,11.50
2019-04-07T18:51:20.090Z,9.30
2019-04-07T18:56:14.124Z,10.10
2019-04-07T19:01:10.276Z,10.20
2019-04-07T19:06:05.969Z,11.30
2019-04-07T19:11:11.208Z,10.70
2019-04-07T19:16:14.360Z,11.30
2019-04-07T19:21:13.732Z,11.30
2019-04-07T19:26:06.412Z,11.10
2019-04-07T19:30:59.142Z,11.70
2019-04-07T19:35:51.852Z,11.50
2019-04-07T19:40:47.799Z,10.60
2019-04-07T19:45:41.306Z,12.40
2019-04-07T19:50:34.704Z,12.90
2019-04-07T19:55:28.290Z,12.20
2019-04-07T20:00:25.761Z,13.30
2019-04-07T20:05:19.822Z,12.30
2019-04-07T20:10:17.264Z,12.90
2019-04-07T20:15:17.951Z,13.00
2019-04-07T20:20:11.184Z,14.30
2019-04-07T20:25:08.594Z,14.50
2019-04-07T20:30:11.194Z,15.30
2019-04-07T20:35:08.633Z,15.70
2019-04-07T20:40:06.575Z,14.60
2019-04-07T20:45:04.123Z,14.70
2019-04-07T20:50:10.662Z,15.80
2019-04-07T20:55:08.102Z,15.40
2019-04-07T21:00:05.144Z,15.00
2019-04-07T21:04:58.358Z,16.40
2019-04-07T21:09:51.029Z,17.30
2019-04-07T21:14:43.945Z,15.00
2019-04-07T21:19:38.577Z,15.90
2019-04-07T21:24:31.529Z,17.00
2019-04-07T21:29:24.075Z,17.90
2019-04-07T21:34:16.752Z,14.40
2019-04-07T21:39:09.813Z,16.30
2019-04-07T21:44:03.979Z,15.30
2019-04-07T21:48:57.950Z,18.00
2019-04-07T21:53:55.146Z,16.70
2019-04-07T21:58:54.823Z,15.00
2019-04-07T22:03:49.718Z,18.70
2019-04-07T22:08:45.173Z,19.80
2019-04-07T22:13:38.617Z,14.90
2019-04-07T22:18:31.092Z,17.60
2019-04-07T22:23:29.503Z,21.70
2019-04-07T22:28:27.599Z,19.10
2019-04-07T22:33:25.649Z,20.00
2019-04-07T22:38:23.888Z,19.60
2019-04-07T22:43:18.591Z,19.20
2019-04-07T22:48:12.409Z,17.70
2019-04-07T22:53:04.925Z,20.40
2019-04-07T22:57:57.831Z,16.40
2019-04-07T23:02:50.641Z,22.30
2019-04-07T23:07:43.913Z,16.30
2019-04-07T23:12:36.783Z,17.20
2019-04-07T23:17:30.653Z,19.80
2019-04-07T23:22:23.405Z,19.10
2019-04-07T23:27:15.983Z,24.10
2019-04-07T23:32:09.522Z,21.40
2019-04-07T23:37:01.922Z,20.20
2019-04-07T23:41:53.814Z,26.80
2019-04-07T23:46:46.194Z,19.50
2019-04-07T23:51:39.312Z,20.40
2019-04-07T23:56:31.929Z,25.90
